Time;durP1;ratioP1;P1;durP2;ratioP2;P2;SDS_P1;SDS_P2;PMS_P1;PMS_P2;Temp;Humidity;BMP_temperature;BMP_pressure;BME280_temperature;BME280_humidity;BME280_pressure;Samples;Min_cycle;Max_cycle;Signal;HPM_P1;HPM_P2
2022/03/10 00:00:11;;;;;;;;;27.00;24.00;;;;;7.68;46.45;99775.13;6258959;27;97509;-63
2022/03/10 00:03:17;;;;;;;;;27.00;22.60;;;;;7.63;46.32;99781.03;6204660;27;99821;-63
2022/03/10 00:06:21;;;;;;;;;27.00;23.00;;;;;7.56;45.98;99785.47;6231177;27;96791;-64
2022/03/10 00:09:24;;;;;;;;;24.00;22.00;;;;;7.18;46.64;99756.94;6260162;27;97651;-63
2022/03/10 00:12:27;;;;;;;;;28.00;23.60;;;;;7.34;46.68;99794.34;6256232;27;97405;-63
2022/03/10 00:15:32;;;;;;;;;26.25;22.00;;;;;7.43;46.31;99787.91;6242177;27;96800;-64
2022/03/10 00:18:36;;;;;;;;;30.00;24.33;;;;;7.57;46.22;99797.03;6258559;27;98577;-63
2022/03/10 00:21:39;;;;;;;;;24.00;23.00;;;;;7.56;46.22;99796.19;6236958;27;99635;-63
2022/03/10 00:24:42;;;;;;;;;24.00;21.00;;;;;7.63;45.89;99793.59;6259551;27;97429;-63
2022/03/10 00:27:46;;;;;;;;;26.40;23.00;;;;;7.69;45.92;99803.63;6256384;27;97049;-62
2022/03/10 00:30:50;;;;;;;;;30.80;21.00;;;;;7.75;45.90;99806.44;6217651;27;97228;-63
2022/03/10 00:33:54;;;;;;;;;25.00;22.50;;;;;7.78;45.51;99806.06;6241704;27;96788;-63
2022/03/10 00:36:57;;;;;;;;;25.00;22.00;;;;;7.71;45.74;99817.72;6261039;27;96618;-64
2022/03/10 00:40:00;;;;;;;;;24.00;21.20;;;;;7.73;45.63;99810.31;6260036;27;96540;-63
2022/03/10 00:43:04;;;;;;;;;29.80;25.00;;;;;7.78;45.66;99814.13;6261503;27;97030;-64
2022/03/10 00:46:08;;;;;;;;;27.40;23.60;;;;;7.81;45.43;99811.09;6223190;27;98352;-64
2022/03/10 00:49:12;;;;;;;;;26.20;21.20;;;;;7.77;45.45;99817.81;6265666;27;97357;-64
2022/03/10 00:52:15;;;;;;;;;26.40;23.60;;;;;7.79;45.36;99823.84;6268419;27;97336;-62
2022/03/10 00:55:19;;;;;;;;;25.50;22.50;;;;;7.83;45.35;99811.72;6232179;27;96864;-64
2022/03/10 00:58:23;;;;;;;;;25.50;22.50;;;;;7.79;45.41;99809.59;6266444;27;96958;-63
2022/03/10 01:01:27;;;;;;;;;24.00;22.00;;;;;7.85;45.17;99816.91;6268814;27;98033;-63
2022/03/10 01:04:31;;;;;;;;;25.50;20.00;;;;;7.78;45.19;99827.53;6262690;27;98697;-64
2022/03/10 01:07:34;;;;;;;;;26.00;22.00;;;;;7.82;45.06;99828.84;6261509;27;97418;-63
2022/03/10 01:10:38;;;;;;;;;29.60;24.00;;;;;7.88;45.21;99826.44;6269750;27;97793;-65
2022/03/10 01:13:41;;;;;;;;;26.67;21.67;;;;;7.86;45.17;99828.50;6266909;27;97450;-65
2022/03/10 01:16:45;;;;;;;;;28.00;24.60;;;;;7.89;45.24;99826.28;6266478;27;96727;-65
2022/03/10 01:19:50;;;;;;;;;21.00;19.20;;;;;7.82;45.12;99830.69;6260678;27;96750;-66
2022/03/10 01:22:53;;;;;;;;;28.60;25.40;;;;;7.92;44.89;99825.91;6268146;27;96545;-64
2022/03/10 01:25:56;;;;;;;;;26.00;23.00;;;;;7.84;45.09;99821.44;6242728;27;98502;-65
2022/03/10 01:29:00;;;;;;;;;29.00;22.00;;;;;7.90;44.66;99824.44;6250068;27;98391;-65
2022/03/10 01:32:05;;;;;;;;;20.20;19.00;;;;;7.89;44.68;99831.66;6246415;27;98652;-64
2022/03/10 01:35:11;;;;;;;;;21.00;19.00;;;;;7.89;44.65;99836.19;6268952;27;96990;-64
2022/03/10 01:38:16;;;;;;;;;21.00;19.75;;;;;7.97;43.67;99836.94;6234611;27;97204;-63
2022/03/10 01:41:19;;;;;;;;;21.75;19.00;;;;;7.92;43.52;99841.16;6269097;27;96387;-64
2022/03/10 01:44:22;;;;;;;;;20.40;18.00;;;;;7.84;43.25;99842.94;6264415;27;97107;-64
2022/03/10 01:47:27;;;;;;;;;22.40;17.60;;;;;7.65;43.20;99840.75;6267789;27;99123;-65
2022/03/10 01:50:30;;;;;;;;;21.25;20.00;;;;;7.59;43.49;99832.56;6266749;27;96848;-65
2022/03/10 01:53:33;;;;;;;;;20.00;18.00;;;;;7.39;43.49;99830.34;6266099;27;97494;-64
2022/03/10 01:56:38;;;;;;;;;18.00;16.00;;;;;7.28;43.30;99835.31;6264077;27;97906;-65
2022/03/10 01:59:42;;;;;;;;;20.00;17.00;;;;;7.33;43.25;99843.66;6243021;27;97060;-65
2022/03/10 02:02:46;;;;;;;;;17.00;15.00;;;;;7.31;43.18;99845.69;6224795;27;99202;-64
2022/03/10 02:05:50;;;;;;;;;18.40;16.00;;;;;7.28;43.45;99836.13;6260870;27;98036;-63
2022/03/10 02:12:14;;;;;;;;;16.00;13.20;;;;;7.24;43.33;99850.91;6256066;27;96626;-63
2022/03/10 02:18:42;;;;;;;;;16.40;16.00;;;;;7.17;43.28;99854.47;6238686;27;99268;-64
2022/03/10 02:21:45;;;;;;;;;19.25;17.00;;;;;7.25;43.58;99866.00;6259756;27;97321;-63
2022/03/10 02:24:53;;;;;;;;;17.20;15.00;;;;;7.27;43.36;99855.09;6262930;27;98095;-63
2022/03/10 02:27:57;;;;;;;;;16.00;14.50;;;;;7.16;42.82;99880.47;6263214;27;97322;-64
2022/03/10 02:31:01;;;;;;;;;15.80;15.00;;;;;7.06;43.25;99874.47;6241196;27;98391;-65
2022/03/10 02:34:04;;;;;;;;;20.00;16.00;;;;;7.01;43.21;99879.53;6245873;27;96615;-64
2022/03/10 02:37:08;;;;;;;;;17.00;15.60;;;;;7.06;43.37;99882.53;6262884;27;97478;-64
2022/03/10 02:40:13;;;;;;;;;20.75;17.00;;;;;7.12;43.44;99884.50;6263177;27;96563;-63
2022/03/10 02:43:17;;;;;;;;;20.80;18.80;;;;;7.18;43.51;99891.03;6263596;27;97393;-63
2022/03/10 02:46:20;;;;;;;;;21.50;18.00;;;;;7.12;43.37;99897.09;6260349;27;96590;-62
2022/03/10 02:49:24;;;;;;;;;17.40;15.40;;;;;7.08;43.99;99906.50;6238892;27;97277;-63
2022/03/10 02:52:27;;;;;;;;;17.20;15.00;;;;;7.03;43.59;99909.69;6258478;27;97573;-65
2022/03/10 02:55:33;;;;;;;;;19.60;18.00;;;;;6.90;43.42;99894.16;6260543;27;97914;-64
2022/03/10 02:58:36;;;;;;;;;19.00;17.60;;;;;7.04;43.38;99921.25;6257094;27;96958;-64
2022/03/10 03:01:39;;;;;;;;;15.50;14.50;;;;;6.80;43.26;99888.16;6241097;27;97785;-63
2022/03/10 03:04:43;;;;;;;;;15.00;13.40;;;;;7.05;42.87;99928.28;6244641;27;98773;-64
2022/03/10 03:07:48;;;;;;;;;12.20;11.20;;;;;6.72;43.28;99935.59;6257348;27;98506;-63
2022/03/10 03:10:52;;;;;;;;;18.25;14.00;;;;;6.62;43.82;99943.81;6257179;27;97443;-64
2022/03/10 03:13:57;;;;;;;;;15.00;13.25;;;;;6.55;43.60;99953.53;6241171;27;96697;-64
2022/03/10 03:17:00;;;;;;;;;17.00;15.60;;;;;6.39;44.08;99956.25;6262765;27;97313;-65
2022/03/10 03:20:05;;;;;;;;;17.00;14.00;;;;;6.35;44.12;99969.13;6243778;27;98471;-64
2022/03/10 03:23:09;;;;;;;;;15.00;14.00;;;;;6.25;44.03;99954.25;6259790;27;97930;-64
2022/03/10 03:26:14;;;;;;;;;14.60;13.60;;;;;6.27;43.96;99963.78;6260749;27;97908;-65
2022/03/10 03:29:18;;;;;;;;;14.40;13.00;;;;;6.14;44.00;99963.47;6251888;27;97552;-65
2022/03/10 03:32:21;;;;;;;;;14.00;13.75;;;;;6.15;44.15;99975.00;6259678;27;97459;-64
2022/03/10 03:35:26;;;;;;;;;13.00;12.00;;;;;6.01;43.96;99974.66;6261776;27;97208;-65
2022/03/10 03:38:29;;;;;;;;;14.00;13.00;;;;;5.97;44.47;99984.00;6258012;27;97531;-64
2022/03/10 03:41:34;;;;;;;;;12.40;11.40;;;;;5.91;44.14;99973.16;6238217;27;97855;-64
2022/03/10 03:44:37;;;;;;;;;15.50;14.00;;;;;6.00;43.87;99986.38;6260547;27;96891;-64
2022/03/10 03:47:43;;;;;;;;;15.00;12.00;;;;;6.11;43.54;99985.19;6239259;27;98094;-64
2022/03/10 03:50:46;;;;;;;;;13.40;12.40;;;;;5.99;43.40;99989.22;6262387;27;96543;-64
2022/03/10 03:53:50;;;;;;;;;12.25;12.00;;;;;5.95;43.42;100003.94;6258972;27;96781;-64
2022/03/10 03:56:55;;;;;;;;;13.25;12.00;;;;;5.92;43.51;100006.91;6258231;27;97496;-64
2022/03/10 03:59:58;;;;;;;;;15.20;11.60;;;;;5.96;43.50;100002.94;6262391;27;97800;-64
2022/03/10 04:03:07;;;;;;;;;14.25;13.25;;;;;5.96;43.57;100010.97;6258757;27;97210;-64
2022/03/10 04:06:10;;;;;;;;;10.80;10.40;;;;;5.91;43.50;100016.78;6243370;27;97120;-64
2022/03/10 04:09:14;;;;;;;;;11.75;10.25;;;;;5.85;43.49;100021.94;6241192;27;96804;-65
2022/03/10 04:12:18;;;;;;;;;11.00;10.40;;;;;5.88;43.38;100033.19;6242455;27;97207;-64
2022/03/10 04:15:21;;;;;;;;;13.00;11.00;;;;;5.74;43.77;100033.78;6261767;27;97635;-65
2022/03/10 04:18:25;;;;;;;;;12.00;12.00;;;;;5.70;43.72;100037.78;6260259;27;96726;-64
2022/03/10 04:21:28;;;;;;;;;14.20;13.00;;;;;5.73;43.19;100042.81;6256059;27;98525;-64
2022/03/10 04:24:31;;;;;;;;;16.00;14.00;;;;;5.75;43.30;100051.53;6258753;27;96679;-64
2022/03/10 04:27:36;;;;;;;;;12.40;10.40;;;;;5.61;42.89;100047.63;6230957;27;97329;-65
2022/03/10 04:30:39;;;;;;;;;14.00;12.00;;;;;5.62;43.02;100051.13;6207919;28;97562;-65
2022/03/10 04:33:42;;;;;;;;;12.00;11.00;;;;;5.57;43.31;100056.16;6208610;28;97615;-65
2022/03/10 04:36:47;;;;;;;;;11.00;9.00;;;;;5.54;43.22;100065.31;6211531;28;96343;-64
2022/03/10 04:39:50;;;;;;;;;13.00;11.00;;;;;5.50;43.43;100063.13;6207395;28;96830;-65
2022/03/10 04:42:55;;;;;;;;;12.00;10.40;;;;;5.31;43.49;100071.41;6185472;28;98485;-65
2022/03/10 04:46:00;;;;;;;;;12.20;11.00;;;;;5.25;43.73;100072.88;6205426;28;97239;-65
2022/03/10 04:49:04;;;;;;;;;11.00;10.75;;;;;5.27;43.85;100070.88;6204102;28;97471;-64
2022/03/10 04:52:07;;;;;;;;;15.00;12.40;;;;;5.32;44.00;100086.44;6210949;28;96549;-64
2022/03/10 04:55:11;;;;;;;;;13.20;12.00;;;;;5.27;44.12;100083.41;6210242;28;97597;-63
2022/03/10 04:58:16;;;;;;;;;14.60;12.00;;;;;5.05;43.73;100088.28;6210085;28;97443;-63
2022/03/10 05:01:20;;;;;;;;;14.00;13.00;;;;;5.10;43.68;100091.31;6207942;28;97178;-65
2022/03/10 05:04:23;;;;;;;;;12.80;12.00;;;;;4.98;43.66;100095.28;6208991;28;96473;-65
2022/03/10 05:07:27;;;;;;;;;12.20;12.00;;;;;4.80;43.96;100099.78;6210399;28;96857;-67
2022/03/10 05:10:30;;;;;;;;;15.00;13.00;;;;;4.84;44.02;100101.16;6190096;28;96641;-64
2022/03/10 05:13:34;;;;;;;;;15.00;14.00;;;;;4.85;44.33;100102.00;6208734;28;97315;-64
2022/03/10 05:16:38;;;;;;;;;13.00;12.00;;;;;4.86;44.36;100112.53;6207787;28;97397;-64
2022/03/10 05:19:41;;;;;;;;;13.50;12.50;;;;;4.93;43.89;100123.44;6200340;28;96752;-64
2022/03/10 05:22:46;;;;;;;;;14.00;12.00;;;;;4.83;44.19;100118.19;6205632;28;97521;-64
2022/03/10 05:25:49;;;;;;;;;14.00;13.00;;;;;4.84;44.26;100127.06;6201652;28;96837;-64
2022/03/10 05:28:54;;;;;;;;;14.50;13.25;;;;;4.67;44.18;100134.94;6234941;27;97471;-64
2022/03/10 05:31:57;;;;;;;;;14.60;13.00;;;;;4.88;44.26;100147.13;6230607;27;97869;-64
2022/03/10 05:35:01;;;;;;;;;13.20;13.00;;;;;4.90;44.16;100155.81;6245821;27;97486;-63
2022/03/10 05:38:04;;;;;;;;;13.00;11.00;;;;;4.97;43.36;100146.19;6232644;27;99602;-64
2022/03/10 05:41:08;;;;;;;;;15.00;12.00;;;;;4.97;43.12;100151.53;6234492;28;96679;-63
2022/03/10 05:44:13;;;;;;;;;14.80;11.20;;;;;5.10;42.86;100162.66;6238995;27;96651;-63
2022/03/10 05:47:18;;;;;;;;;13.00;11.00;;;;;5.32;42.11;100155.97;6241979;27;97416;-63
2022/03/10 05:50:23;;;;;;;;;13.20;12.80;;;;;5.46;42.30;100163.41;6240338;27;97394;-65
2022/03/10 05:53:26;;;;;;;;;14.60;13.60;;;;;5.33;41.64;100158.47;6236169;28;97519;-63
2022/03/10 05:56:29;;;;;;;;;13.00;11.80;;;;;5.57;41.61;100163.16;6219562;28;99093;-64
2022/03/10 05:59:34;;;;;;;;;14.50;13.00;;;;;5.49;40.85;100168.44;6239174;28;96570;-64
2022/03/10 06:02:38;;;;;;;;;15.00;13.00;;;;;5.68;40.43;100168.22;6239685;28;97557;-63
2022/03/10 06:05:41;;;;;;;;;10.60;10.60;;;;;5.64;40.28;100174.88;6238100;28;96689;-64
2022/03/10 06:08:45;;;;;;;;;12.00;11.00;;;;;5.60;38.74;100184.22;6220291;28;99702;-64
2022/03/10 06:11:48;;;;;;;;;9.25;7.75;;;;;5.32;38.56;100191.59;6239407;28;97440;-64
2022/03/10 06:14:55;;;;;;;;;12.00;9.00;;;;;5.44;39.04;100198.34;6238230;28;97481;-64
2022/03/10 06:17:58;;;;;;;;;12.60;10.80;;;;;5.45;38.61;100204.53;6251134;27;96692;-65
2022/03/10 06:21:01;;;;;;;;;10.00;9.80;;;;;5.35;38.06;100201.94;6240945;27;97444;-65
2022/03/10 06:24:05;;;;;;;;;11.00;9.00;;;;;5.31;37.54;100205.94;6244020;27;96788;-66
2022/03/10 06:27:08;;;;;;;;;10.00;9.00;;;;;5.55;37.06;100227.50;6244865;27;96714;-65
2022/03/10 06:30:14;;;;;;;;;9.60;9.00;;;;;5.55;36.01;100222.16;6260977;27;97589;-64
2022/03/10 06:33:17;;;;;;;;;9.00;9.00;;;;;5.79;36.21;100228.66;6260335;27;96471;-65
2022/03/10 06:36:20;;;;;;;;;9.00;8.00;;;;;5.55;35.58;100230.19;6263607;27;97515;-64
2022/03/10 06:39:43;;;;;;;;;8.60;7.40;;;;;5.70;37.15;100240.31;6362666;27;96126;-68
2022/03/10 06:42:48;;;;;;;;;8.00;8.00;;;;;5.79;35.06;100239.34;6330373;27;96577;-64
2022/03/10 06:45:51;;;;;;;;;9.25;8.00;;;;;6.33;34.66;100239.00;6335042;27;96486;-65
2022/03/10 06:48:55;;;;;;;;;9.75;8.75;;;;;6.90;34.99;100257.91;6333647;27;97380;-64
2022/03/10 06:51:58;;;;;;;;;10.00;9.00;;;;;7.17;32.21;100244.22;6333775;27;97216;-65
2022/03/10 06:55:03;;;;;;;;;10.00;8.40;;;;;7.95;32.08;100247.16;6330735;27;98100;-61
2022/03/10 06:58:07;;;;;;;;;10.00;8.40;;;;;8.38;30.03;100253.91;6315750;27;97702;-63
2022/03/10 07:01:10;;;;;;;;;9.60;9.00;;;;;9.71;29.70;100250.00;6301729;27;97760;-63
2022/03/10 07:04:14;;;;;;;;;8.00;7.20;;;;;11.37;26.99;100258.16;6308407;27;97538;-63
2022/03/10 07:07:17;;;;;;;;;11.00;10.00;;;;;12.48;25.67;100255.44;6308107;27;96477;-62
2022/03/10 07:10:22;;;;;;;;;9.50;8.50;;;;;12.64;25.49;100262.38;6281916;27;97503;-62
2022/03/10 07:13:25;;;;;;;;;11.40;10.00;;;;;12.82;24.54;100257.25;6283159;27;97446;-62
2022/03/10 07:16:31;;;;;;;;;13.00;9.50;;;;;13.08;24.03;100269.19;6283376;27;97414;-62
2022/03/10 07:19:34;;;;;;;;;9.75;7.75;;;;;13.63;23.11;100263.50;6320320;27;97125;-63
2022/03/10 07:22:38;;;;;;;;;8.80;8.20;;;;;14.63;22.10;100273.16;6305937;27;97863;-63
2022/03/10 07:25:43;;;;;;;;;9.00;9.00;;;;;15.32;21.41;100283.25;6307614;27;97065;-63
2022/03/10 07:28:46;;;;;;;;;9.00;9.00;;;;;15.75;20.43;100283.41;6308410;27;96835;-62
2022/03/10 07:31:49;;;;;;;;;10.50;8.50;;;;;14.41;20.92;100285.34;6307987;27;96975;-62
2022/03/10 07:34:53;;;;;;;;;11.00;8.60;;;;;14.25;22.62;100279.28;6308580;27;99420;-62
2022/03/10 07:37:59;;;;;;;;;7.75;7.00;;;;;14.32;21.51;100282.81;6307201;27;97608;-62
2022/03/10 07:41:04;;;;;;;;;11.40;10.00;;;;;14.78;21.71;100287.28;6306516;27;99201;-61
2022/03/10 07:44:07;;;;;;;;;9.00;8.20;;;;;15.24;20.55;100288.97;6307971;27;96941;-64
2022/03/10 07:47:10;;;;;;;;;10.00;9.00;;;;;15.51;20.83;100298.63;6304010;27;97539;-65
2022/03/10 07:50:14;;;;;;;;;8.60;7.60;;;;;16.03;20.25;100298.22;6294007;27;96683;-65
2022/03/10 07:53:19;;;;;;;;;11.00;8.00;;;;;16.39;19.87;100289.28;6286222;27;97468;-65
2022/03/10 07:56:23;;;;;;;;;9.00;8.50;;;;;16.86;18.99;100295.06;6286239;27;97906;-63
2022/03/10 07:59:27;;;;;;;;;9.40;8.00;;;;;17.45;19.15;100299.72;6286723;27;98559;-64
2022/03/10 08:02:30;;;;;;;;;7.00;7.00;;;;;17.79;18.37;100306.34;6286526;27;98380;-64
2022/03/10 08:05:34;;;;;;;;;7.20;6.80;;;;;17.78;18.60;100302.00;6280572;27;98021;-65
2022/03/10 08:08:37;;;;;;;;;8.00;7.00;;;;;18.18;18.17;100307.59;6286333;27;97737;-63
2022/03/10 08:11:44;;;;;;;;;11.00;8.00;;;;;18.26;17.31;100310.00;6288486;27;98354;-63
2022/03/10 08:14:47;;;;;;;;;6.00;5.00;;;;;17.90;17.02;100307.44;6282802;27;96390;-64
2022/03/10 08:17:51;;;;;;;;;7.00;6.00;;;;;16.99;17.31;100303.09;6281185;27;97417;-62
2022/03/10 08:20:55;;;;;;;;;7.00;6.50;;;;;15.30;19.36;100316.06;6290108;27;96519;-63
2022/03/10 08:23:59;;;;;;;;;7.00;7.00;;;;;15.55;19.78;100324.31;6290808;27;97477;-65
2022/03/10 08:27:04;;;;;;;;;8.00;8.00;;;;;15.75;18.87;100319.59;6283858;27;97545;-64
2022/03/10 08:30:13;;;;;;;;;8.00;6.00;;;;;14.49;19.96;100313.06;6272152;27;96870;-63
2022/03/10 08:33:16;;;;;;;;;8.00;7.20;;;;;13.46;20.39;100316.41;6264847;27;96712;-63
2022/03/10 08:36:19;;;;;;;;;7.75;6.00;;;;;13.38;20.97;100319.31;6269883;27;98461;-61
2022/03/10 08:39:23;;;;;;;;;6.60;6.00;;;;;12.29;22.31;100312.13;6275254;27;97418;-62
2022/03/10 08:42:27;;;;;;;;;7.60;7.00;;;;;11.83;22.89;100318.00;6285316;27;96433;-63
2022/03/10 08:45:30;;;;;;;;;9.00;8.00;;;;;11.39;23.49;100333.56;6289329;27;98006;-62
2022/03/10 08:48:34;;;;;;;;;8.60;7.00;;;;;12.84;22.59;100313.91;6289220;27;97434;-63
2022/03/10 08:51:38;;;;;;;;;7.80;6.80;;;;;13.49;22.36;100324.09;6289144;27;97152;-64
2022/03/10 08:54:41;;;;;;;;;7.40;6.40;;;;;13.13;21.87;100316.31;6287686;27;100095;-63
2022/03/10 08:57:47;;;;;;;;;8.00;7.00;;;;;13.52;22.26;100317.47;6288974;27;97850;-65
2022/03/10 09:00:51;;;;;;;;;7.00;6.20;;;;;15.13;20.17;100307.63;6281294;27;97669;-64
2022/03/10 09:04:14;;;;;;;;;9.00;8.00;;;;;16.06;18.29;100318.72;6281930;27;97763;-64
2022/03/10 09:07:17;;;;;;;;;9.00;7.00;;;;;14.72;18.78;100327.00;6278315;27;96475;-63
2022/03/10 09:10:20;;;;;;;;;7.40;6.60;;;;;15.00;19.11;100321.25;6276691;27;96610;-63
2022/03/10 09:13:25;;;;;;;;;10.40;10.00;;;;;15.83;19.68;100334.81;6279487;27;97556;-63
2022/03/10 09:16:29;;;;;;;;;8.00;7.00;;;;;17.25;18.68;100327.25;6270547;27;96623;-64
2022/03/10 09:19:32;;;;;;;;;9.00;8.20;;;;;18.17;16.66;100323.16;6266052;27;96523;-64
2022/03/10 09:22:36;;;;;;;;;6.00;5.00;;;;;18.29;15.44;100323.16;6284331;27;97617;-65
2022/03/10 09:25:39;;;;;;;;;7.50;7.00;;;;;17.68;16.13;100327.13;6285813;27;97864;-63
2022/03/10 09:28:43;;;;;;;;;10.00;9.00;;;;;18.25;16.17;100329.31;6285597;27;96864;-63
2022/03/10 09:31:50;;;;;;;;;8.00;7.60;;;;;18.18;15.41;100327.53;6267410;27;97521;-63
2022/03/10 09:34:53;;;;;;;;;6.60;6.60;;;;;18.46;15.11;100334.22;6288865;27;98223;-63
2022/03/10 09:37:56;;;;;;;;;6.20;6.00;;;;;19.19;15.18;100336.38;6286327;27;96472;-62
2022/03/10 09:41:00;;;;;;;;;6.00;6.00;;;;;19.73;14.81;100334.97;6278292;27;99673;-63
2022/03/10 09:44:12;;;;;;;;;8.00;7.00;;;;;19.63;14.89;100338.34;6288518;27;97068;-63
2022/03/10 09:47:16;;;;;;;;;7.50;6.50;;;;;18.88;15.23;100335.72;6286209;27;98797;-63
2022/03/10 09:50:19;;;;;;;;;8.00;6.00;;;;;18.39;15.33;100331.59;6282103;27;96994;-64
2022/03/10 09:53:23;;;;;;;;;6.80;6.20;;;;;18.68;15.12;100327.09;6281023;27;96839;-64
2022/03/10 09:56:27;;;;;;;;;6.20;5.00;;;;;18.50;15.05;100332.66;6287764;27;99023;-65
2022/03/10 09:59:32;;;;;;;;;6.40;6.40;;;;;17.28;15.85;100335.00;6289051;27;96861;-65
2022/03/10 10:02:36;;;;;;;;;8.00;6.40;;;;;16.40;17.06;100337.25;6284513;27;97113;-65
2022/03/10 10:05:41;;;;;;;;;8.00;6.00;;;;;15.03;18.63;100344.44;6284754;27;96699;-63
2022/03/10 10:08:54;;;;;;;;;8.80;7.80;;;;;14.29;19.25;100350.22;6272852;27;97445;-64
2022/03/10 10:12:06;;;;;;;;;9.20;8.00;;;;;14.02;19.97;100346.72;6284484;27;96890;-64
2022/03/10 10:15:10;;;;;;;;;7.00;7.00;;;;;13.88;20.57;100364.81;6274514;27;97540;-63
2022/03/10 10:18:15;;;;;;;;;7.25;7.00;;;;;13.76;20.29;100361.06;6287937;27;97364;-64
2022/03/10 10:21:39;;;;;;;;;7.00;7.00;;;;;15.09;19.13;100366.16;6280564;27;97413;-62
2022/03/10 10:24:50;;;;;;;;;5.60;5.00;;;;;15.34;18.22;100365.41;6284300;27;97520;-63
2022/03/10 10:27:53;;;;;;;;;7.40;7.40;;;;;14.83;17.74;100376.25;6282763;27;98022;-64
2022/03/10 10:31:00;;;;;;;;;7.00;5.00;;;;;14.10;18.71;100375.47;6277097;27;97475;-63
2022/03/10 10:34:09;;;;;;;;;6.00;6.00;;;;;13.43;19.52;100373.72;6284691;27;96668;-62
2022/03/10 10:37:22;;;;;;;;;7.40;5.80;;;;;13.02;20.04;100373.72;6263028;27;96966;-63
2022/03/10 10:40:28;;;;;;;;;7.25;7.00;;;;;13.92;20.05;100377.97;6279065;27;97947;-62
2022/03/10 10:43:40;;;;;;;;;8.00;7.00;;;;;13.64;19.58;100376.25;6286463;27;97597;-63
2022/03/10 10:46:48;;;;;;;;;6.40;6.00;;;;;13.32;19.73;100375.13;6276312;27;96657;-66
2022/03/10 10:50:00;;;;;;;;;7.00;6.40;;;;;14.11;19.19;100372.56;6276142;27;97475;-63
2022/03/10 10:53:04;;;;;;;;;7.75;6.75;;;;;13.45;19.61;100371.63;6279764;27;97511;-64
2022/03/10 10:56:08;;;;;;;;;7.00;5.40;;;;;13.12;19.34;100381.50;6285153;27;98047;-62
2022/03/10 10:59:26;;;;;;;;;4.60;4.20;;;;;12.68;18.89;100374.59;6287432;27;97447;-65
2022/03/10 11:02:43;;;;;;;;;5.00;4.75;;;;;12.49;20.34;100370.75;6275362;27;96566;-63
2022/03/10 11:05:47;;;;;;;;;8.00;7.00;;;;;12.94;19.68;100377.47;6287349;27;96927;-63
2022/03/10 11:08:51;;;;;;;;;6.60;6.00;;;;;13.69;19.41;100368.34;6303301;27;97500;-63
2022/03/10 11:11:55;;;;;;;;;6.00;5.00;;;;;14.58;18.80;100349.78;6287168;27;97113;-62
2022/03/10 11:14:58;;;;;;;;;6.00;6.00;;;;;16.03;17.82;100381.72;6286374;27;96652;-63
2022/03/10 11:18:04;;;;;;;;;6.00;6.00;;;;;16.02;16.20;100380.91;6283340;27;96492;-64
2022/03/10 11:21:16;;;;;;;;;5.00;5.00;;;;;15.78;16.52;100392.59;6285613;27;97026;-62
2022/03/10 11:24:41;;;;;;;;;5.00;5.00;;;;;14.92;17.05;100377.69;6281939;27;97022;-62
2022/03/10 11:27:49;;;;;;;;;5.60;5.60;;;;;15.66;16.80;100377.19;6288302;27;97332;-63
2022/03/10 11:30:55;;;;;;;;;6.00;6.00;;;;;15.99;16.33;100372.34;6291225;27;96323;-64
2022/03/10 11:34:00;;;;;;;;;4.00;4.00;;;;;15.97;15.94;100377.19;6276716;27;97027;-64
2022/03/10 11:37:10;;;;;;;;;7.00;6.00;;;;;15.13;16.53;100366.53;6290351;27;97490;-63
2022/03/10 11:40:15;;;;;;;;;5.40;5.40;;;;;14.96;16.55;100366.19;6290958;27;96585;-63
2022/03/10 11:43:36;;;;;;;;;6.00;5.00;;;;;15.05;17.25;100364.09;6285705;27;98480;-63
2022/03/10 11:46:52;;;;;;;;;6.40;6.40;;;;;15.44;17.96;100373.94;6273229;27;96967;-63
2022/03/10 11:49:57;;;;;;;;;6.00;6.00;;;;;16.08;16.77;100375.66;6274826;27;98591;-63
2022/03/10 11:53:02;;;;;;;;;6.00;6.00;;;;;16.71;16.17;100376.34;6289111;27;97486;-63
2022/03/10 11:56:05;;;;;;;;;5.00;4.00;;;;;16.53;15.41;100371.66;6272934;27;97546;-63
2022/03/10 11:59:18;;;;;;;;;7.00;6.00;;;;;16.85;16.31;100370.53;6278528;27;96691;-64
2022/03/10 12:02:33;;;;;;;;;6.80;5.20;;;;;16.64;16.82;100386.47;6287314;27;96580;-63
2022/03/10 12:05:53;;;;;;;;;7.75;6.25;;;;;17.15;17.06;100375.22;6282321;27;96540;-64
2022/03/10 12:09:03;;;;;;;;;6.00;6.00;;;;;17.67;15.86;100371.81;6288357;27;97061;-64
2022/03/10 12:12:14;;;;;;;;;7.00;6.00;;;;;17.48;15.71;100374.78;6287367;27;96749;-64
2022/03/10 12:15:41;;;;;;;;;6.40;6.00;;;;;16.41;16.79;100377.03;6289335;27;98073;-65
2022/03/10 12:18:45;;;;;;;;;8.00;7.00;;;;;16.37;16.14;100372.25;6287683;27;97748;-62
2022/03/10 12:21:56;;;;;;;;;6.20;6.00;;;;;16.00;16.94;100383.00;6273756;27;98585;-64
2022/03/10 12:25:18;;;;;;;;;7.00;6.60;;;;;16.05;17.16;100376.91;6290557;27;97439;-63
2022/03/10 12:28:25;;;;;;;;;6.80;6.80;;;;;16.30;16.55;100376.91;6285645;27;96605;-63
2022/03/10 12:31:32;;;;;;;;;8.00;7.00;;;;;16.56;16.44;100376.69;6299663;27;97156;-61
2022/03/10 12:34:36;;;;;;;;;6.50;6.00;;;;;17.06;16.39;100379.28;6285671;27;99603;-64
2022/03/10 12:37:47;;;;;;;;;7.00;7.00;;;;;17.15;15.54;100377.94;6265926;27;97445;-65
2022/03/10 12:40:51;;;;;;;;;7.20;6.00;;;;;17.22;15.84;100363.16;6279214;27;96680;-61
2022/03/10 12:43:55;;;;;;;;;7.00;7.00;;;;;17.41;16.00;100374.03;6287631;27;98314;-63
2022/03/10 12:47:07;;;;;;;;;8.20;6.80;;;;;17.62;16.13;100374.41;6278987;27;96685;-63
2022/03/10 12:50:12;;;;;;;;;7.40;6.00;;;;;17.78;15.67;100367.47;6284520;27;97624;-63
2022/03/10 12:53:18;;;;;;;;;7.00;7.00;;;;;17.42;15.09;100362.91;6288571;27;96814;-63
2022/03/10 12:56:22;;;;;;;;;7.00;7.00;;;;;16.98;15.23;100371.44;6287072;27;97459;-63
2022/03/10 12:59:27;;;;;;;;;6.00;5.00;;;;;16.63;15.97;100382.06;6288002;27;97524;-62
2022/03/10 13:02:38;;;;;;;;;7.50;6.50;;;;;16.89;16.18;100373.63;6288890;27;97144;-63
2022/03/10 13:05:41;;;;;;;;;8.00;7.00;;;;;17.23;15.93;100372.19;6263177;27;97513;-63
2022/03/10 13:08:55;;;;;;;;;5.20;5.00;;;;;17.00;15.42;100355.69;6264482;27;97959;-63
2022/03/10 13:11:59;;;;;;;;;6.00;6.00;;;;;16.20;16.76;100368.41;6278896;27;97504;-64
2022/03/10 13:15:03;;;;;;;;;5.00;5.00;;;;;15.84;16.40;100379.97;6287497;27;96515;-63
2022/03/10 13:18:07;;;;;;;;;7.50;6.00;;;;;15.44;16.77;100368.50;6289030;27;98068;-63
2022/03/10 13:21:11;;;;;;;;;7.00;6.00;;;;;15.06;16.28;100350.25;6288591;27;97470;-63
2022/03/10 13:24:39;;;;;;;;;6.00;6.00;;;;;14.86;16.89;100352.22;6288889;27;98119;-62
2022/03/10 13:27:43;;;;;;;;;5.00;5.00;;;;;14.42;17.40;100361.09;6287699;27;97457;-62
2022/03/10 13:30:47;;;;;;;;;7.00;6.25;;;;;14.53;17.87;100367.75;6286041;27;96860;-63
2022/03/10 13:33:50;;;;;;;;;6.00;5.50;;;;;14.30;17.62;100360.88;6287100;27;97569;-62
2022/03/10 13:36:54;;;;;;;;;5.00;4.60;;;;;14.31;17.67;100359.00;6282455;27;99519;-64
2022/03/10 13:39:59;;;;;;;;;7.50;7.00;;;;;14.10;17.82;100353.78;6282098;27;97045;-64
2022/03/10 13:43:04;;;;;;;;;6.00;6.00;;;;;14.28;18.57;100359.41;6283872;27;96581;-61
2022/03/10 13:46:15;;;;;;;;;9.00;8.00;;;;;13.93;17.80;100341.69;6299098;27;97226;-64
2022/03/10 13:49:20;;;;;;;;;6.20;6.00;;;;;13.86;17.49;100355.25;6284396;27;97416;-63
2022/03/10 13:52:26;;;;;;;;;7.60;6.60;;;;;13.43;17.83;100352.03;6301134;27;97100;-61
2022/03/10 13:55:34;;;;;;;;;7.00;6.00;;;;;13.63;18.28;100357.50;6285676;27;97381;-61
2022/03/10 13:58:37;;;;;;;;;8.00;7.00;;;;;13.50;18.63;100352.03;6282890;27;97183;-63
2022/03/10 14:01:43;;;;;;;;;5.20;5.00;;;;;13.71;18.23;100352.72;6279772;27;97036;-61
2022/03/10 14:04:46;;;;;;;;;8.60;6.60;;;;;13.55;18.22;100360.41;6285749;27;97267;-61
2022/03/10 14:08:11;;;;;;;;;7.40;7.40;;;;;13.14;18.03;100353.22;6281965;27;97583;-62
2022/03/10 14:11:16;;;;;;;;;7.40;6.00;;;;;13.28;18.67;100354.91;6273352;27;98368;-62
2022/03/10 14:14:30;;;;;;;;;7.00;6.75;;;;;12.94;18.56;100352.25;6281691;27;97958;-62
2022/03/10 14:17:41;;;;;;;;;7.80;7.00;;;;;13.24;19.09;100352.81;6285120;27;96550;-62
2022/03/10 14:20:47;;;;;;;;;8.00;7.00;;;;;12.83;18.61;100350.09;6287759;27;97354;-62
2022/03/10 14:24:02;;;;;;;;;9.00;8.40;;;;;12.39;19.32;100351.31;6286590;27;96616;-61
2022/03/10 14:27:08;;;;;;;;;10.00;9.60;;;;;12.13;19.79;100327.63;6275752;27;97321;-62